sensor_id;sensor_type;location;lat;lon;timestamp;pressure;altitude;pressure_sealevel;temperature;humidity
12349;BME280;5974;42.710;27.258;2023-04-26T00:00:13;99298.88;;;12.11;100.00
12349;BME280;5974;42.710;27.258;2023-04-26T00:02:40;99291.47;;;12.04;100.00
12349;BME280;5974;42.710;27.258;2023-04-26T00:05:07;99291.34;;;11.91;100.00
12349;BME280;5974;42.710;27.258;2023-04-26T00:07:34;99280.22;;;11.87;100.00
12349;BME280;5974;42.710;27.258;2023-04-26T00:10:02;99270.88;;;11.68;100.00
12349;BME280;5974;42.710;27.258;2023-04-26T00:12:30;99275.50;;;11.49;100.00
12349;BME280;5974;42.710;27.258;2023-04-26T00:14:57;99275.63;;;11.31;100.00
12349;BME280;5974;42.710;27.258;2023-04-26T00:17:24;99274.47;;;11.21;100.00
12349;BME280;5974;42.710;27.258;2023-04-26T00:19:51;99282.00;;;11.12;100.00
12349;BME280;5974;42.710;27.258;2023-04-26T00:22:18;99268.22;;;11.08;100.00
12349;BME280;5974;42.710;27.258;2023-04-26T00:24:44;99278.34;;;10.99;100.00
12349;BME280;5974;42.710;27.258;2023-04-26T00:27:11;99279.66;;;10.92;100.00
12349;BME280;5974;42.710;27.258;2023-04-26T00:29:40;99280.91;;;10.69;100.00
12349;BME280;5974;42.710;27.258;2023-04-26T00:32:06;99287.34;;;10.46;100.00
12349;BME280;5974;42.710;27.258;2023-04-26T00:34:34;99275.56;;;10.39;100.00
12349;BME280;5974;42.710;27.258;2023-04-26T00:37:02;99285.25;;;10.53;100.00
12349;BME280;5974;42.710;27.258;2023-04-26T00:39:29;99277.13;;;10.26;100.00
12349;BME280;5974;42.710;27.258;2023-04-26T00:41:56;99277.66;;;10.32;100.00
12349;BME280;5974;42.710;27.258;2023-04-26T00:44:23;99275.97;;;10.31;100.00
12349;BME280;5974;42.710;27.258;2023-04-26T00:46:52;99266.03;;;10.38;100.00
12349;BME280;5974;42.710;27.258;2023-04-26T00:49:23;99269.13;;;10.29;100.00
12349;BME280;5974;42.710;27.258;2023-04-26T00:51:51;99266.09;;;10.04;100.00
12349;BME280;5974;42.710;27.258;2023-04-26T00:54:19;99264.47;;;10.01;100.00
12349;BME280;5974;42.710;27.258;2023-04-26T00:56:47;99265.69;;;10.11;100.00
12349;BME280;5974;42.710;27.258;2023-04-26T00:59:17;99268.47;;;10.08;100.00
12349;BME280;5974;42.710;27.258;2023-04-26T01:01:44;99273.69;;;10.08;100.00
12349;BME280;5974;42.710;27.258;2023-04-26T01:04:14;99270.13;;;10.09;100.00
12349;BME280;5974;42.710;27.258;2023-04-26T01:06:42;99269.75;;;10.00;100.00
12349;BME280;5974;42.710;27.258;2023-04-26T01:09:09;99263.56;;;10.02;100.00
12349;BME280;5974;42.710;27.258;2023-04-26T01:11:39;99260.78;;;10.05;100.00
12349;BME280;5974;42.710;27.258;2023-04-26T01:14:07;99265.91;;;10.07;100.00
12349;BME280;5974;42.710;27.258;2023-04-26T01:16:35;99258.72;;;10.12;100.00
12349;BME280;5974;42.710;27.258;2023-04-26T01:19:07;99260.72;;;10.24;100.00
12349;BME280;5974;42.710;27.258;2023-04-26T01:21:36;99230.59;;;10.17;100.00
12349;BME280;5974;42.710;27.258;2023-04-26T01:24:05;99261.47;;;10.26;100.00
12349;BME280;5974;42.710;27.258;2023-04-26T01:26:32;99266.13;;;10.37;100.00
12349;BME280;5974;42.710;27.258;2023-04-26T01:28:59;99264.09;;;10.42;100.00
12349;BME280;5974;42.710;27.258;2023-04-26T01:31:26;99257.28;;;10.55;100.00
12349;BME280;5974;42.710;27.258;2023-04-26T01:33:53;99254.53;;;10.73;100.00
12349;BME280;5974;42.710;27.258;2023-04-26T01:36:19;99255.44;;;10.88;100.00
12349;BME280;5974;42.710;27.258;2023-04-26T01:38:46;99239.75;;;10.88;100.00
12349;BME280;5974;42.710;27.258;2023-04-26T01:41:14;99246.75;;;10.87;100.00
12349;BME280;5974;42.710;27.258;2023-04-26T01:43:41;99247.66;;;11.02;100.00
12349;BME280;5974;42.710;27.258;2023-04-26T01:46:08;99242.56;;;11.15;100.00
12349;BME280;5974;42.710;27.258;2023-04-26T01:48:35;99249.22;;;11.20;100.00
12349;BME280;5974;42.710;27.258;2023-04-26T01:51:02;99227.41;;;10.90;100.00
12349;BME280;5974;42.710;27.258;2023-04-26T01:53:29;99230.25;;;11.17;100.00
12349;BME280;5974;42.710;27.258;2023-04-26T01:55:56;99229.16;;;11.05;100.00
12349;BME280;5974;42.710;27.258;2023-04-26T01:58:27;99227.72;;;11.15;100.00
12349;BME280;5974;42.710;27.258;2023-04-26T02:00:54;99222.84;;;11.09;100.00
12349;BME280;5974;42.710;27.258;2023-04-26T02:03:20;99222.22;;;11.20;100.00
12349;BME280;5974;42.710;27.258;2023-04-26T02:05:47;99220.88;;;11.28;100.00
12349;BME280;5974;42.710;27.258;2023-04-26T02:08:14;99213.97;;;11.41;100.00
12349;BME280;5974;42.710;27.258;2023-04-26T02:10:41;99212.19;;;10.82;100.00
12349;BME280;5974;42.710;27.258;2023-04-26T02:13:08;99207.53;;;10.72;100.00
12349;BME280;5974;42.710;27.258;2023-04-26T02:15:36;99213.22;;;11.10;100.00
12349;BME280;5974;42.710;27.258;2023-04-26T02:18:03;99208.56;;;11.15;100.00
12349;BME280;5974;42.710;27.258;2023-04-26T02:20:30;99205.97;;;10.99;100.00
12349;BME280;5974;42.710;27.258;2023-04-26T02:22:56;99209.19;;;11.04;100.00
12349;BME280;5974;42.710;27.258;2023-04-26T02:25:23;99207.00;;;10.97;100.00
12349;BME280;5974;42.710;27.258;2023-04-26T02:27:50;99212.66;;;10.89;100.00
12349;BME280;5974;42.710;27.258;2023-04-26T02:30:17;99212.34;;;10.48;100.00
12349;BME280;5974;42.710;27.258;2023-04-26T02:32:45;99220.44;;;10.75;100.00
12349;BME280;5974;42.710;27.258;2023-04-26T02:35:12;99216.28;;;11.02;100.00
12349;BME280;5974;42.710;27.258;2023-04-26T02:37:39;99215.56;;;11.14;100.00
12349;BME280;5974;42.710;27.258;2023-04-26T02:40:07;99209.72;;;11.25;100.00
12349;BME280;5974;42.710;27.258;2023-04-26T02:42:35;99202.63;;;11.27;100.00
12349;BME280;5974;42.710;27.258;2023-04-26T02:45:02;99199.97;;;11.13;100.00
12349;BME280;5974;42.710;27.258;2023-04-26T02:47:29;99201.97;;;11.23;100.00
12349;BME280;5974;42.710;27.258;2023-04-26T02:49:58;99198.44;;;11.38;100.00
12349;BME280;5974;42.710;27.258;2023-04-26T02:52:24;99204.28;;;11.43;100.00
12349;BME280;5974;42.710;27.258;2023-04-26T02:54:51;99205.69;;;11.49;100.00
12349;BME280;5974;42.710;27.258;2023-04-26T02:57:18;99197.69;;;11.36;100.00
12349;BME280;5974;42.710;27.258;2023-04-26T02:59:45;99196.63;;;10.95;100.00
12349;BME280;5974;42.710;27.258;2023-04-26T03:02:12;99204.13;;;11.31;100.00
12349;BME280;5974;42.710;27.258;2023-04-26T03:04:39;99202.50;;;11.14;100.00
12349;BME280;5974;42.710;27.258;2023-04-26T03:07:07;99201.44;;;10.87;100.00
12349;BME280;5974;42.710;27.258;2023-04-26T03:09:34;99204.69;;;11.22;100.00
12349;BME280;5974;42.710;27.258;2023-04-26T03:12:05;99203.38;;;11.29;100.00
12349;BME280;5974;42.710;27.258;2023-04-26T03:14:32;99213.75;;;11.01;100.00
12349;BME280;5974;42.710;27.258;2023-04-26T03:16:59;99211.19;;;11.15;100.00
12349;BME280;5974;42.710;27.258;2023-04-26T03:19:26;99210.66;;;11.24;100.00
12349;BME280;5974;42.710;27.258;2023-04-26T03:21:53;99210.50;;;11.11;100.00
12349;BME280;5974;42.710;27.258;2023-04-26T03:24:21;99215.72;;;11.27;100.00
12349;BME280;5974;42.710;27.258;2023-04-26T03:26:48;99214.50;;;11.32;100.00
12349;BME280;5974;42.710;27.258;2023-04-26T03:29:15;99218.56;;;11.38;100.00
12349;BME280;5974;42.710;27.258;2023-04-26T03:31:42;99218.47;;;11.54;100.00
12349;BME280;5974;42.710;27.258;2023-04-26T03:34:09;99208.56;;;11.44;100.00
12349;BME280;5974;42.710;27.258;2023-04-26T03:36:36;99224.38;;;11.57;100.00
12349;BME280;5974;42.710;27.258;2023-04-26T03:39:02;99213.38;;;11.66;100.00
12349;BME280;5974;42.710;27.258;2023-04-26T03:41:32;99211.94;;;11.76;100.00
12349;BME280;5974;42.710;27.258;2023-04-26T03:44:00;99218.34;;;11.11;100.00
12349;BME280;5974;42.710;27.258;2023-04-26T03:46:27;99222.38;;;10.87;100.00
12349;BME280;5974;42.710;27.258;2023-04-26T03:48:53;99237.72;;;10.77;100.00
12349;BME280;5974;42.710;27.258;2023-04-26T03:51:20;99237.56;;;11.56;100.00
12349;BME280;5974;42.710;27.258;2023-04-26T03:53:47;99229.50;;;11.74;100.00
12349;BME280;5974;42.710;27.258;2023-04-26T03:56:14;99232.88;;;11.90;100.00
12349;BME280;5974;42.710;27.258;2023-04-26T03:58:43;99230.47;;;11.58;100.00
12349;BME280;5974;42.710;27.258;2023-04-26T04:01:10;99234.09;;;11.85;100.00
12349;BME280;5974;42.710;27.258;2023-04-26T04:03:36;99235.03;;;12.12;100.00
12349;BME280;5974;42.710;27.258;2023-04-26T04:06:04;99235.25;;;12.23;100.00
12349;BME280;5974;42.710;27.258;2023-04-26T04:08:31;99232.13;;;12.31;100.00
12349;BME280;5974;42.710;27.258;2023-04-26T04:10:58;99225.03;;;12.33;100.00
12349;BME280;5974;42.710;27.258;2023-04-26T04:13:25;99227.28;;;12.39;100.00
12349;BME280;5974;42.710;27.258;2023-04-26T04:15:54;99226.72;;;12.34;100.00
12349;BME280;5974;42.710;27.258;2023-04-26T04:18:21;99227.16;;;12.40;100.00
12349;BME280;5974;42.710;27.258;2023-04-26T04:20:47;99229.34;;;12.20;100.00
12349;BME280;5974;42.710;27.258;2023-04-26T04:23:14;99232.13;;;12.31;100.00
12349;BME280;5974;42.710;27.258;2023-04-26T04:25:41;99233.56;;;12.36;100.00
12349;BME280;5974;42.710;27.258;2023-04-26T04:28:10;99240.28;;;11.98;100.00
12349;BME280;5974;42.710;27.258;2023-04-26T04:30:37;99244.78;;;12.10;100.00
12349;BME280;5974;42.710;27.258;2023-04-26T04:33:05;99249.16;;;12.52;100.00
12349;BME280;5974;42.710;27.258;2023-04-26T04:35:32;99249.59;;;12.73;100.00
12349;BME280;5974;42.710;27.258;2023-04-26T04:37:59;99247.88;;;12.86;100.00
12349;BME280;5974;42.710;27.258;2023-04-26T04:40:26;99243.97;;;12.79;100.00
12349;BME280;5974;42.710;27.258;2023-04-26T04:42:53;99244.31;;;12.87;100.00
12349;BME280;5974;42.710;27.258;2023-04-26T04:45:20;99237.34;;;12.59;100.00
12349;BME280;5974;42.710;27.258;2023-04-26T04:47:47;99248.44;;;12.08;100.00
12349;BME280;5974;42.710;27.258;2023-04-26T04:50:15;99264.22;;;12.06;100.00
12349;BME280;5974;42.710;27.258;2023-04-26T04:52:42;99279.69;;;12.25;100.00
12349;BME280;5974;42.710;27.258;2023-04-26T04:55:09;99276.25;;;12.38;100.00
12349;BME280;5974;42.710;27.258;2023-04-26T04:57:35;99278.78;;;12.95;100.00
12349;BME280;5974;42.710;27.258;2023-04-26T05:00:03;99280.59;;;13.21;100.00
12349;BME280;5974;42.710;27.258;2023-04-26T05:02:34;99265.91;;;13.58;100.00
12349;BME280;5974;42.710;27.258;2023-04-26T05:05:01;99250.06;;;13.85;100.00
12349;BME280;5974;42.710;27.258;2023-04-26T05:07:30;99247.44;;;13.60;100.00
12349;BME280;5974;42.710;27.258;2023-04-26T05:09:57;99241.22;;;13.61;100.00
12349;BME280;5974;42.710;27.258;2023-04-26T05:12:24;99245.78;;;13.71;100.00
12349;BME280;5974;42.710;27.258;2023-04-26T05:14:51;99245.88;;;13.30;100.00
12349;BME280;5974;42.710;27.258;2023-04-26T05:17:18;99252.53;;;13.09;100.00
12349;BME280;5974;42.710;27.258;2023-04-26T05:19:44;99258.78;;;13.07;100.00
12349;BME280;5974;42.710;27.258;2023-04-26T05:22:11;99268.94;;;13.13;100.00
12349;BME280;5974;42.710;27.258;2023-04-26T05:24:44;99269.50;;;13.03;100.00
12349;BME280;5974;42.710;27.258;2023-04-26T05:27:11;99271.97;;;12.78;100.00
12349;BME280;5974;42.710;27.258;2023-04-26T05:29:38;99283.34;;;13.05;100.00
12349;BME280;5974;42.710;27.258;2023-04-26T05:32:06;99275.25;;;12.68;100.00
12349;BME280;5974;42.710;27.258;2023-04-26T05:34:33;99285.69;;;12.69;100.00
12349;BME280;5974;42.710;27.258;2023-04-26T05:36:59;99291.28;;;12.77;100.00
12349;BME280;5974;42.710;27.258;2023-04-26T05:39:26;99295.81;;;13.02;100.00
12349;BME280;5974;42.710;27.258;2023-04-26T05:41:54;99292.84;;;12.80;100.00
12349;BME280;5974;42.710;27.258;2023-04-26T05:44:21;99297.53;;;12.89;100.00
12349;BME280;5974;42.710;27.258;2023-04-26T05:46:49;99304.06;;;12.96;100.00
12349;BME280;5974;42.710;27.258;2023-04-26T05:49:15;99305.97;;;12.94;100.00
12349;BME280;5974;42.710;27.258;2023-04-26T05:51:42;99315.03;;;13.02;100.00
12349;BME280;5974;42.710;27.258;2023-04-26T05:54:09;99312.03;;;13.09;100.00
12349;BME280;5974;42.710;27.258;2023-04-26T05:56:36;99311.84;;;13.12;100.00
12349;BME280;5974;42.710;27.258;2023-04-26T05:59:04;99299.97;;;12.92;100.00
12349;BME280;5974;42.710;27.258;2023-04-26T06:01:31;99303.34;;;12.80;100.00
12349;BME280;5974;42.710;27.258;2023-04-26T06:03:58;99315.41;;;13.11;100.00
12349;BME280;5974;42.710;27.258;2023-04-26T06:06:25;99310.44;;;13.06;100.00
12349;BME280;5974;42.710;27.258;2023-04-26T06:08:53;99317.31;;;12.94;100.00
12349;BME280;5974;42.710;27.258;2023-04-26T06:11:19;99316.91;;;13.15;100.00
12349;BME280;5974;42.710;27.258;2023-04-26T06:13:46;99314.06;;;13.44;100.00
12349;BME280;5974;42.710;27.258;2023-04-26T06:16:14;99314.06;;;13.44;100.00
12349;BME280;5974;42.710;27.258;2023-04-26T06:18:41;99308.59;;;13.35;100.00
12349;BME280;5974;42.710;27.258;2023-04-26T06:21:08;99306.75;;;13.49;100.00
12349;BME280;5974;42.710;27.258;2023-04-26T06:23:35;99302.63;;;13.85;100.00
12349;BME280;5974;42.710;27.258;2023-04-26T06:26:02;99290.72;;;13.67;100.00
12349;BME280;5974;42.710;27.258;2023-04-26T06:28:29;99288.91;;;13.54;100.00
12349;BME280;5974;42.710;27.258;2023-04-26T06:30:55;99286.00;;;13.32;100.00
12349;BME280;5974;42.710;27.258;2023-04-26T06:33:24;99294.59;;;13.61;100.00
12349;BME280;5974;42.710;27.258;2023-04-26T06:35:50;99289.50;;;13.45;100.00
12349;BME280;5974;42.710;27.258;2023-04-26T06:38:17;99304.09;;;13.76;100.00
12349;BME280;5974;42.710;27.258;2023-04-26T06:40:44;99304.63;;;13.42;100.00
12349;BME280;5974;42.710;27.258;2023-04-26T06:43:11;99309.34;;;13.37;100.00
12349;BME280;5974;42.710;27.258;2023-04-26T06:45:38;99312.38;;;13.70;100.00
12349;BME280;5974;42.710;27.258;2023-04-26T06:48:05;99317.16;;;13.24;100.00
12349;BME280;5974;42.710;27.258;2023-04-26T06:50:36;99331.31;;;13.07;100.00
12349;BME280;5974;42.710;27.258;2023-04-26T06:53:03;99370.44;;;12.98;100.00
12349;BME280;5974;42.710;27.258;2023-04-26T06:55:30;99328.91;;;12.90;100.00
12349;BME280;5974;42.710;27.258;2023-04-26T06:57:57;99331.88;;;12.98;100.00
12349;BME280;5974;42.710;27.258;2023-04-26T07:00:24;99337.31;;;13.24;100.00
12349;BME280;5974;42.710;27.258;2023-04-26T07:02:51;99337.59;;;13.73;100.00
12349;BME280;5974;42.710;27.258;2023-04-26T07:05:18;99329.72;;;13.73;100.00
12349;BME280;5974;42.710;27.258;2023-04-26T07:07:46;99328.56;;;13.77;100.00
12349;BME280;5974;42.710;27.258;2023-04-26T07:10:14;99309.66;;;13.72;100.00
12349;BME280;5974;42.710;27.258;2023-04-26T07:12:41;99305.94;;;14.26;100.00
12349;BME280;5974;42.710;27.258;2023-04-26T07:15:09;99299.69;;;14.78;100.00
12349;BME280;5974;42.710;27.258;2023-04-26T07:17:35;99284.41;;;15.19;100.00
12349;BME280;5974;42.710;27.258;2023-04-26T07:20:03;99271.69;;;15.13;100.00
12349;BME280;5974;42.710;27.258;2023-04-26T07:22:30;99262.38;;;15.67;100.00
12349;BME280;5974;42.710;27.258;2023-04-26T07:24:58;99239.28;;;17.04;100.00
12349;BME280;5974;42.710;27.258;2023-04-26T07:27:25;99205.78;;;19.09;100.00
12349;BME280;5974;42.710;27.258;2023-04-26T07:29:53;99184.28;;;19.69;100.00
12349;BME280;5974;42.710;27.258;2023-04-26T07:32:20;99185.66;;;19.73;100.00
12349;BME280;5974;42.710;27.258;2023-04-26T07:34:47;99182.34;;;19.71;100.00
12349;BME280;5974;42.710;27.258;2023-04-26T07:37:14;99180.88;;;19.96;100.00
12349;BME280;5974;42.710;27.258;2023-04-26T07:39:41;99186.66;;;18.95;100.00
12349;BME280;5974;42.710;27.258;2023-04-26T07:42:09;99186.59;;;18.36;100.00
12349;BME280;5974;42.710;27.258;2023-04-26T07:44:36;99186.38;;;17.26;100.00
12349;BME280;5974;42.710;27.258;2023-04-26T07:47:03;99210.47;;;18.76;100.00
12349;BME280;5974;42.710;27.258;2023-04-26T07:49:30;99203.13;;;18.50;100.00
12349;BME280;5974;42.710;27.258;2023-04-26T07:51:57;99205.63;;;17.91;100.00
12349;BME280;5974;42.710;27.258;2023-04-26T07:54:26;99180.38;;;17.45;100.00
12349;BME280;5974;42.710;27.258;2023-04-26T07:56:53;99213.97;;;17.54;100.00
12349;BME280;5974;42.710;27.258;2023-04-26T07:59:21;99208.84;;;18.15;100.00
12349;BME280;5974;42.710;27.258;2023-04-26T08:01:48;99206.06;;;19.15;100.00
12349;BME280;5974;42.710;27.258;2023-04-26T08:04:16;99203.53;;;19.23;100.00
12349;BME280;5974;42.710;27.258;2023-04-26T08:06:43;99203.72;;;19.41;100.00
12349;BME280;5974;42.710;27.258;2023-04-26T08:09:12;99197.78;;;19.95;100.00
12349;BME280;5974;42.710;27.258;2023-04-26T08:11:39;99190.97;;;19.83;100.00
12349;BME280;5974;42.710;27.258;2023-04-26T08:14:06;99186.59;;;19.91;100.00
12349;BME280;5974;42.710;27.258;2023-04-26T08:16:34;99188.53;;;20.09;100.00
12349;BME280;5974;42.710;27.258;2023-04-26T08:19:01;99183.88;;;19.64;100.00
12349;BME280;5974;42.710;27.258;2023-04-26T08:21:28;99193.16;;;19.97;100.00
12349;BME280;5974;42.710;27.258;2023-04-26T08:23:55;99186.97;;;20.06;100.00
12349;BME280;5974;42.710;27.258;2023-04-26T08:26:22;99193.50;;;18.88;100.00
12349;BME280;5974;42.710;27.258;2023-04-26T08:28:49;99183.97;;;18.67;100.00
12349;BME280;5974;42.710;27.258;2023-04-26T08:31:15;99195.31;;;18.98;100.00
12349;BME280;5974;42.710;27.258;2023-04-26T08:33:44;99194.34;;;19.27;100.00
12349;BME280;5974;42.710;27.258;2023-04-26T08:36:11;99185.41;;;19.38;100.00
12349;BME280;5974;42.710;27.258;2023-04-26T08:38:38;99180.78;;;20.15;100.00
12349;BME280;5974;42.710;27.258;2023-04-26T08:41:05;99172.88;;;19.40;100.00
12349;BME280;5974;42.710;27.258;2023-04-26T08:43:37;99172.59;;;19.43;100.00
12349;BME280;5974;42.710;27.258;2023-04-26T08:46:06;99178.88;;;19.52;100.00
12349;BME280;5974;42.710;27.258;2023-04-26T08:48:36;99178.59;;;20.11;100.00
12349;BME280;5974;42.710;27.258;2023-04-26T08:51:06;99158.06;;;18.89;100.00
12349;BME280;5974;42.710;27.258;2023-04-26T08:53:34;99185.53;;;18.88;100.00
12349;BME280;5974;42.710;27.258;2023-04-26T08:56:03;99182.06;;;18.98;100.00
12349;BME280;5974;42.710;27.258;2023-04-26T08:58:30;99178.59;;;19.07;100.00
12349;BME280;5974;42.710;27.258;2023-04-26T09:00:58;99182.22;;;19.25;100.00
12349;BME280;5974;42.710;27.258;2023-04-26T09:03:27;99174.97;;;18.49;100.00
12349;BME280;5974;42.710;27.258;2023-04-26T09:05:55;99171.25;;;18.51;100.00
12349;BME280;5974;42.710;27.258;2023-04-26T09:08:24;99180.09;;;18.10;100.00
12349;BME280;5974;42.710;27.258;2023-04-26T09:10:52;99184.84;;;18.47;100.00
12349;BME280;5974;42.710;27.258;2023-04-26T09:13:19;99186.09;;;18.42;100.00
12349;BME280;5974;42.710;27.258;2023-04-26T09:15:47;99181.56;;;18.24;100.00
12349;BME280;5974;42.710;27.258;2023-04-26T09:18:18;99181.22;;;18.08;100.00
12349;BME280;5974;42.710;27.258;2023-04-26T09:20:45;99180.69;;;19.51;100.00
12349;BME280;5974;42.710;27.258;2023-04-26T09:23:28;99172.44;;;19.54;100.00
12349;BME280;5974;42.710;27.258;2023-04-26T09:25:54;99175.63;;;19.29;100.00
12349;BME280;5974;42.710;27.258;2023-04-26T09:28:22;99173.78;;;18.72;100.00
12349;BME280;5974;42.710;27.258;2023-04-26T09:30:50;99176.22;;;19.13;100.00
12349;BME280;5974;42.710;27.258;2023-04-26T09:33:17;99171.31;;;19.37;100.00
12349;BME280;5974;42.710;27.258;2023-04-26T09:35:44;99175.91;;;19.26;100.00
12349;BME280;5974;42.710;27.258;2023-04-26T09:38:12;99176.59;;;19.66;100.00
12349;BME280;5974;42.710;27.258;2023-04-26T09:40:42;99177.75;;;19.16;100.00
12349;BME280;5974;42.710;27.258;2023-04-26T09:43:10;99169.72;;;18.58;100.00
12349;BME280;5974;42.710;27.258;2023-04-26T09:45:45;99171.53;;;18.27;100.00
12349;BME280;5974;42.710;27.258;2023-04-26T09:48:17;99159.13;;;18.28;100.00
12349;BME280;5974;42.710;27.258;2023-04-26T09:50:45;99161.44;;;18.02;100.00
12349;BME280;5974;42.710;27.258;2023-04-26T09:53:24;99167.00;;;18.39;100.00
12349;BME280;5974;42.710;27.258;2023-04-26T09:55:54;99161.22;;;18.15;100.00
12349;BME280;5974;42.710;27.258;2023-04-26T09:58:21;99160.09;;;18.57;100.00
12349;BME280;5974;42.710;27.258;2023-04-26T10:00:50;99158.31;;;18.77;100.00
12349;BME280;5974;42.710;27.258;2023-04-26T10:03:17;99156.91;;;18.54;100.00
12349;BME280;5974;42.710;27.258;2023-04-26T10:05:45;99157.50;;;18.76;100.00
12349;BME280;5974;42.710;27.258;2023-04-26T10:08:12;99139.09;;;18.25;100.00
12349;BME280;5974;42.710;27.258;2023-04-26T10:10:39;99154.13;;;17.95;100.00
12349;BME280;5974;42.710;27.258;2023-04-26T10:13:08;99154.38;;;18.22;100.00
12349;BME280;5974;42.710;27.258;2023-04-26T10:15:38;99144.84;;;18.40;100.00
12349;BME280;5974;42.710;27.258;2023-04-26T10:18:05;99144.81;;;17.70;100.00
12349;BME280;5974;42.710;27.258;2023-04-26T10:20:32;99152.13;;;17.77;100.00
12349;BME280;5974;42.710;27.258;2023-04-26T10:23:04;99142.28;;;17.59;100.00
12349;BME280;5974;42.710;27.258;2023-04-26T10:25:34;99148.16;;;17.51;100.00
12349;BME280;5974;42.710;27.258;2023-04-26T10:28:01;99143.47;;;17.75;100.00
12349;BME280;5974;42.710;27.258;2023-04-26T10:30:30;99139.97;;;17.13;100.00
12349;BME280;5974;42.710;27.258;2023-04-26T10:33:15;99144.41;;;17.65;100.00
12349;BME280;5974;42.710;27.258;2023-04-26T10:36:08;99148.44;;;17.69;100.00
12349;BME280;5974;42.710;27.258;2023-04-26T10:38:39;99145.88;;;17.58;100.00
12349;BME280;5974;42.710;27.258;2023-04-26T10:44:38;99159.97;;;17.47;100.00
12349;BME280;5974;42.710;27.258;2023-04-26T10:47:20;99171.00;;;17.73;100.00
12349;BME280;5974;42.710;27.258;2023-04-26T10:49:47;99164.00;;;17.62;100.00
12349;BME280;5974;42.710;27.258;2023-04-26T10:52:15;99171.09;;;17.62;100.00
12349;BME280;5974;42.710;27.258;2023-04-26T10:54:52;99167.66;;;17.50;100.00
12349;BME280;5974;42.710;27.258;2023-04-26T10:57:20;99170.50;;;17.26;100.00
12349;BME280;5974;42.710;27.258;2023-04-26T11:00:16;99170.47;;;17.38;100.00
12349;BME280;5974;42.710;27.258;2023-04-26T11:02:55;99167.91;;;17.47;100.00
12349;BME280;5974;42.710;27.258;2023-04-26T11:05:51;99166.44;;;18.35;100.00
12349;BME280;5974;42.710;27.258;2023-04-26T11:08:20;99157.34;;;18.28;100.00
12349;BME280;5974;42.710;27.258;2023-04-26T11:10:52;99156.25;;;18.01;100.00
12349;BME280;5974;42.710;27.258;2023-04-26T11:13:22;99144.56;;;18.43;100.00
12349;BME280;5974;42.710;27.258;2023-04-26T11:15:52;99161.97;;;18.36;100.00
12349;BME280;5974;42.710;27.258;2023-04-26T11:18:21;99131.50;;;18.02;100.00
12349;BME280;5974;42.710;27.258;2023-04-26T11:20:48;99161.97;;;18.95;100.00
12349;BME280;5974;42.710;27.258;2023-04-26T11:23:17;99157.34;;;18.28;100.00
12349;BME280;5974;42.710;27.258;2023-04-26T11:25:44;99155.81;;;18.75;100.00
12349;BME280;5974;42.710;27.258;2023-04-26T11:28:11;99144.03;;;18.49;100.00
12349;BME280;5974;42.710;27.258;2023-04-26T11:30:38;99142.09;;;19.76;100.00
12349;BME280;5974;42.710;27.258;2023-04-26T11:33:04;99145.31;;;20.16;100.00
12349;BME280;5974;42.710;27.258;2023-04-26T11:35:34;99135.34;;;20.28;100.00
12349;BME280;5974;42.710;27.258;2023-04-26T11:38:03;99136.28;;;19.99;100.00
12349;BME280;5974;42.710;27.258;2023-04-26T11:40:31;99141.78;;;20.97;100.00
12349;BME280;5974;42.710;27.258;2023-04-26T11:42:59;99148.00;;;20.88;100.00
12349;BME280;5974;42.710;27.258;2023-04-26T11:45:27;99137.50;;;21.40;100.00
12349;BME280;5974;42.710;27.258;2023-04-26T11:47:54;99131.41;;;21.47;100.00
12349;BME280;5974;42.710;27.258;2023-04-26T11:50:22;99131.22;;;21.41;100.00
12349;BME280;5974;42.710;27.258;2023-04-26T11:52:53;99140.78;;;20.36;100.00
12349;BME280;5974;42.710;27.258;2023-04-26T11:55:23;99139.75;;;20.10;100.00
12349;BME280;5974;42.710;27.258;2023-04-26T11:57:53;99141.84;;;19.69;100.00
12349;BME280;5974;42.710;27.258;2023-04-26T12:00:20;99140.91;;;18.74;100.00
12349;BME280;5974;42.710;27.258;2023-04-26T12:02:47;99125.78;;;18.06;100.00
12349;BME280;5974;42.710;27.258;2023-04-26T12:05:22;99145.81;;;17.99;100.00
12349;BME280;5974;42.710;27.258;2023-04-26T12:07:49;99151.97;;;17.79;100.00
12349;BME280;5974;42.710;27.258;2023-04-26T12:10:22;99150.69;;;18.04;100.00
12349;BME280;5974;42.710;27.258;2023-04-26T12:12:50;99158.69;;;18.53;100.00
12349;BME280;5974;42.710;27.258;2023-04-26T12:15:18;99142.31;;;18.29;100.00
12349;BME280;5974;42.710;27.258;2023-04-26T12:17:54;99147.31;;;19.29;100.00
12349;BME280;5974;42.710;27.258;2023-04-26T12:20:32;99162.22;;;18.92;100.00
12349;BME280;5974;42.710;27.258;2023-04-26T12:23:00;99139.50;;;18.21;100.00
12349;BME280;5974;42.710;27.258;2023-04-26T12:25:30;99129.09;;;18.38;100.00
12349;BME280;5974;42.710;27.258;2023-04-26T12:27:57;99151.72;;;18.52;100.00
12349;BME280;5974;42.710;27.258;2023-04-26T12:30:25;99139.94;;;18.75;100.00
12349;BME280;5974;42.710;27.258;2023-04-26T12:32:52;99137.69;;;18.31;100.00
12349;BME280;5974;42.710;27.258;2023-04-26T12:35:19;99142.47;;;18.37;100.00
12349;BME280;5974;42.710;27.258;2023-04-26T12:37:46;99138.69;;;18.30;100.00
12349;BME280;5974;42.710;27.258;2023-04-26T12:40:14;99137.28;;;18.26;100.00
12349;BME280;5974;42.710;27.258;2023-04-26T12:42:42;99134.59;;;18.56;100.00
12349;BME280;5974;42.710;27.258;2023-04-26T12:45:09;99112.34;;;19.16;100.00
12349;BME280;5974;42.710;27.258;2023-04-26T12:47:36;99123.44;;;19.58;100.00
12349;BME280;5974;42.710;27.258;2023-04-26T12:50:04;99119.84;;;19.50;100.00
12349;BME280;5974;42.710;27.258;2023-04-26T12:52:31;99121.41;;;18.75;100.00
12349;BME280;5974;42.710;27.258;2023-04-26T12:54:58;99118.19;;;19.01;100.00
12349;BME280;5974;42.710;27.258;2023-04-26T12:57:25;99112.19;;;18.99;100.00